Time;durP1;ratioP1;P1;durP2;ratioP2;P2;SDS_P1;SDS_P2;PMS_P1;PMS_P2;Temp;Humidity;BMP_temperature;BMP_pressure;BME280_temperature;BME280_humidity;BME280_pressure;Samples;Min_cycle;Max_cycle;Signal;HPM_P1;HPM_P2
2022/06/19 00:00:10;;;;;;;3.58;1.10;;;;;;;;;;5013196;28;20215;-73
2022/06/19 00:02:39;;;;;;;2.30;1.17;;;;;;;;;;5013810;28;20228;-74
2022/06/19 00:05:05;;;;;;;3.22;1.40;;;;;;;;;;5028888;28;20223;-74
2022/06/19 00:07:30;;;;;;;3.28;1.40;;;;;;;;;;4996963;28;20231;-73
2022/06/19 00:10:01;;;;;;;2.08;1.17;;;;;;;;;;4997407;28;20276;-72
2022/06/19 00:12:27;;;;;;;3.70;1.80;;;;;;;;;;5011019;28;20267;-73
2022/06/19 00:14:54;;;;;;;3.95;1.35;;;;;;;;;;5010093;28;20223;-73
2022/06/19 00:17:20;;;;;;;3.85;1.55;;;;;;;;;;4990776;28;20226;-73
2022/06/19 00:19:46;;;;;;;3.33;1.33;;;;;;;;;;5013017;28;20270;-73
2022/06/19 00:22:11;;;;;;;5.05;1.35;;;;;;;;;;5010103;28;20241;-73
2022/06/19 00:24:41;;;;;;;3.08;1.27;;;;;;;;;;5013093;28;20220;-72
2022/06/19 00:27:07;;;;;;;3.72;1.33;;;;;;;;;;5029180;28;20227;-74
2022/06/19 00:29:35;;;;;;;3.85;1.30;;;;;;;;;;4998569;28;20221;-74
2022/06/19 00:32:07;;;;;;;3.83;1.48;;;;;;;;;;5001745;28;20581;-74
2022/06/19 00:34:34;;;;;;;5.13;1.40;;;;;;;;;;4973385;28;20224;-73
2022/06/19 00:37:01;;;;;;;2.38;1.20;;;;;;;;;;4981803;28;20284;-74
2022/06/19 00:39:31;;;;;;;3.38;1.20;;;;;;;;;;5017589;28;20230;-74
2022/06/19 00:42:04;;;;;;;4.35;1.55;;;;;;;;;;4999403;28;20361;-74
2022/06/19 00:44:29;;;;;;;2.78;1.45;;;;;;;;;;5032413;28;20693;-73
2022/06/19 00:46:55;;;;;;;3.20;1.45;;;;;;;;;;5012981;28;20223;-73
2022/06/19 00:49:25;;;;;;;3.17;1.48;;;;;;;;;;5032420;28;20223;-75
2022/06/19 00:52:06;;;;;;;2.97;1.35;;;;;;;;;;5035428;28;20242;-73
2022/06/19 00:54:45;;;;;;;8.00;2.00;;;;;;;;;;5002273;28;20223;-73
2022/06/19 00:57:15;;;;;;;2.95;1.33;;;;;;;;;;5001643;28;20292;-73
2022/06/19 00:59:43;;;;;;;4.05;1.63;;;;;;;;;;5031489;28;20228;-73
2022/06/19 01:02:11;;;;;;;3.83;1.25;;;;;;;;;;4992478;28;20302;-74
2022/06/19 01:04:53;;;;;;;4.10;1.67;;;;;;;;;;5017448;28;20227;-73
2022/06/19 01:07:18;;;;;;;3.05;1.50;;;;;;;;;;5017243;28;20318;-73
2022/06/19 01:09:44;;;;;;;5.88;1.77;;;;;;;;;;5015515;28;20304;-73
2022/06/19 01:12:12;;;;;;;3.78;1.63;;;;;;;;;;5015981;28;20746;-73
2022/06/19 01:14:40;;;;;;;3.47;1.50;;;;;;;;;;5007189;28;20227;-74
2022/06/19 01:17:11;;;;;;;3.63;1.92;;;;;;;;;;5000704;28;20232;-74
2022/06/19 01:19:41;;;;;;;5.18;1.70;;;;;;;;;;5016612;28;20235;-74
2022/06/19 01:22:15;;;;;;;3.13;1.90;;;;;;;;;;5002946;28;20211;-73
2022/06/19 01:25:10;;;;;;;4.03;1.55;;;;;;;;;;5032723;28;20303;-74
2022/06/19 01:30:31;;;;;;;2.67;2.03;;;;;;;;;;5004233;28;20281;-73
2022/06/19 01:33:00;;;;;;;4.55;2.00;;;;;;;;;;5031438;28;20244;-74
2022/06/19 01:35:27;;;;;;;5.10;1.80;;;;;;;;;;5016902;28;20219;-74
2022/06/19 01:37:55;;;;;;;5.55;1.92;;;;;;;;;;5015186;28;20634;-74
2022/06/19 01:40:31;;;;;;;5.43;1.88;;;;;;;;;;5032255;28;20230;-75
2022/06/19 01:42:57;;;;;;;5.63;2.00;;;;;;;;;;4999037;28;20234;-74
2022/06/19 01:45:27;;;;;;;5.53;2.28;;;;;;;;;;5047964;28;20792;-74
2022/06/19 01:47:55;;;;;;;5.05;2.08;;;;;;;;;;5016454;28;20816;-71
2022/06/19 01:50:25;;;;;;;6.60;2.22;;;;;;;;;;4998022;28;20253;-74
2022/06/19 01:52:53;;;;;;;3.95;2.00;;;;;;;;;;5032304;28;20374;-73
2022/06/19 01:55:19;;;;;;;8.18;2.47;;;;;;;;;;4999996;28;20608;-74
2022/06/19 01:57:55;;;;;;;6.03;2.45;;;;;;;;;;5015848;28;20227;-73
2022/06/19 02:00:25;;;;;;;6.90;2.20;;;;;;;;;;4980058;28;20219;-74
2022/06/19 02:03:18;;;;;;;8.07;2.45;;;;;;;;;;5010887;28;20239;-72
2022/06/19 02:05:43;;;;;;;8.02;2.40;;;;;;;;;;5042867;28;20986;-72
2022/06/19 02:08:09;;;;;;;8.27;2.40;;;;;;;;;;5031247;28;20237;-74
2022/06/19 02:10:36;;;;;;;8.50;2.42;;;;;;;;;;4997467;28;20224;-72
2022/06/19 02:13:02;;;;;;;6.55;2.60;;;;;;;;;;5028836;28;20234;-72
2022/06/19 02:15:32;;;;;;;9.52;2.67;;;;;;;;;;5016313;28;20662;-74
2022/06/19 02:17:58;;;;;;;7.35;2.22;;;;;;;;;;5015268;28;20235;-73
2022/06/19 02:20:23;;;;;;;7.47;2.78;;;;;;;;;;5015299;28;20749;-73
2022/06/19 02:22:49;;;;;;;6.68;2.38;;;;;;;;;;5014755;28;20223;-72
2022/06/19 02:25:19;;;;;;;8.00;2.55;;;;;;;;;;5008034;28;20226;-73
2022/06/19 02:27:44;;;;;;;7.45;2.60;;;;;;;;;;4999556;28;20230;-73
2022/06/19 02:30:13;;;;;;;10.93;2.65;;;;;;;;;;5015155;28;20220;-71
2022/06/19 02:32:43;;;;;;;8.77;2.22;;;;;;;;;;5013763;28;20239;-73
2022/06/19 02:35:18;;;;;;;7.93;2.60;;;;;;;;;;5015134;28;20310;-73
2022/06/19 02:37:50;;;;;;;5.90;2.25;;;;;;;;;;4998745;28;20230;-70
2022/06/19 02:40:33;;;;;;;7.10;2.30;;;;;;;;;;5045808;28;20615;-73
2022/06/19 02:43:01;;;;;;;4.60;2.15;;;;;;;;;;5029294;28;20223;-74
2022/06/19 02:45:28;;;;;;;5.95;2.13;;;;;;;;;;5031622;28;20220;-72
2022/06/19 02:47:59;;;;;;;6.47;1.95;;;;;;;;;;5030670;28;20602;-73
2022/06/19 02:50:30;;;;;;;5.65;2.10;;;;;;;;;;5030877;28;20219;-72
2022/06/19 02:52:55;;;;;;;6.00;2.10;;;;;;;;;;5018173;28;20322;-72
2022/06/19 02:55:24;;;;;;;7.25;2.03;;;;;;;;;;5013465;28;20221;-71
2022/06/19 02:57:50;;;;;;;7.60;2.20;;;;;;;;;;5053659;23;20219;-73
2022/06/19 03:03:03;;;;;;;6.10;2.10;;;;;;;;;;5550130;23;20255;-84
2022/06/19 03:05:31;;;;;;;6.80;2.17;;;;;;;;;;4992086;28;20254;-85
2022/06/19 03:07:57;;;;;;;6.65;2.08;;;;;;;;;;4993174;28;20231;-84
2022/06/19 03:10:25;;;;;;;7.80;2.10;;;;;;;;;;5008842;28;20249;-85
2022/06/19 03:12:53;;;;;;;6.45;1.90;;;;;;;;;;5001836;28;20299;-86
2022/06/19 03:15:21;;;;;;;4.15;1.90;;;;;;;;;;4999604;28;20753;-86
2022/06/19 03:17:47;;;;;;;5.38;1.70;;;;;;;;;;5000673;28;20228;-86
2022/06/19 03:20:17;;;;;;;7.85;2.08;;;;;;;;;;4993650;28;20224;-85
2022/06/19 03:22:45;;;;;;;7.28;1.77;;;;;;;;;;4999320;28;20285;-86
2022/06/19 03:25:13;;;;;;;8.00;1.92;;;;;;;;;;4957007;28;20241;-87
2022/06/19 03:27:38;;;;;;;5.15;1.70;;;;;;;;;;4979088;28;20227;-86
2022/06/19 03:30:07;;;;;;;4.45;1.40;;;;;;;;;;4983852;28;20307;-85
2022/06/19 03:32:32;;;;;;;8.20;2.17;;;;;;;;;;4998635;28;20281;-86
2022/06/19 03:34:58;;;;;;;4.03;1.55;;;;;;;;;;4980349;28;20323;-88
2022/06/19 03:37:26;;;;;;;7.97;1.83;;;;;;;;;;4997781;28;20266;-86
2022/06/19 03:39:52;;;;;;;5.88;1.80;;;;;;;;;;4981970;28;20232;-86
2022/06/19 03:42:18;;;;;;;6.63;2.00;;;;;;;;;;4999038;28;20609;-86
2022/06/19 03:44:43;;;;;;;5.40;1.80;;;;;;;;;;5000470;28;20224;-86
2022/06/19 03:47:13;;;;;;;7.78;1.90;;;;;;;;;;4988770;28;20208;-87
2022/06/19 03:49:39;;;;;;;8.25;2.08;;;;;;;;;;4977429;28;20231;-83
2022/06/19 03:52:05;;;;;;;5.20;1.70;;;;;;;;;;5018642;28;20307;-85
2022/06/19 03:54:30;;;;;;;8.00;1.80;;;;;;;;;;5025322;28;20228;-87
2022/06/19 03:56:59;;;;;;;7.75;2.08;;;;;;;;;;5026377;28;20219;-82
2022/06/19 03:59:25;;;;;;;7.03;1.90;;;;;;;;;;5033428;28;20229;-83
2022/06/19 04:01:51;;;;;;;6.68;1.70;;;;;;;;;;5020488;28;20263;-81
2022/06/19 04:04:19;;;;;;;6.55;2.25;;;;;;;;;;4983948;28;20304;-83
2022/06/19 04:06:47;;;;;;;8.20;2.20;;;;;;;;;;4977160;28;20233;-82
2022/06/19 04:09:16;;;;;;;6.30;2.10;;;;;;;;;;5026688;28;20239;-83
2022/06/19 04:11:45;;;;;;;4.35;2.13;;;;;;;;;;5001906;28;20232;-83
2022/06/19 04:14:11;;;;;;;7.82;2.20;;;;;;;;;;5004053;28;20220;-84
2022/06/19 04:16:36;;;;;;;4.95;1.90;;;;;;;;;;5003508;28;20340;-83
2022/06/19 04:19:03;;;;;;;8.07;2.17;;;;;;;;;;4983521;28;20236;-85
2022/06/19 04:21:30;;;;;;;6.57;2.13;;;;;;;;;;5015507;28;20228;-80
2022/06/19 04:24:04;;;;;;;10.73;2.25;;;;;;;;;;4998334;28;20296;-87
2022/06/19 04:26:35;;;;;;;9.30;2.70;;;;;;;;;;5003670;28;20229;-88
2022/06/19 04:29:03;;;;;;;6.50;2.25;;;;;;;;;;4987442;28;20228;-88
2022/06/19 04:31:28;;;;;;;7.80;2.30;;;;;;;;;;4984698;28;20239;-85
2022/06/19 04:33:58;;;;;;;5.60;2.20;;;;;;;;;;5003327;28;20324;-86
2022/06/19 04:36:24;;;;;;;7.18;2.40;;;;;;;;;;4954989;28;20248;-87
2022/06/19 04:38:54;;;;;;;9.07;2.58;;;;;;;;;;4979816;28;20315;-86
2022/06/19 04:41:30;;;;;;;8.45;2.40;;;;;;;;;;4976814;28;20237;-88
2022/06/19 04:43:56;;;;;;;9.45;2.50;;;;;;;;;;4973311;28;20208;-85
2022/06/19 04:46:22;;;;;;;9.63;2.20;;;;;;;;;;4952243;28;20319;-86
2022/06/19 04:48:52;;;;;;;7.53;2.17;;;;;;;;;;4957760;28;20606;-87
2022/06/19 04:51:24;;;;;;;6.22;2.15;;;;;;;;;;4966958;28;20225;-86
2022/06/19 04:53:53;;;;;;;7.68;2.53;;;;;;;;;;4967581;28;20259;-85
2022/06/19 04:56:21;;;;;;;6.30;2.30;;;;;;;;;;4949963;28;20621;-86
2022/06/19 04:58:46;;;;;;;10.77;2.40;;;;;;;;;;4984367;28;20281;-86
2022/06/19 05:01:28;;;;;;;7.68;2.65;;;;;;;;;;4971939;28;20233;-88
2022/06/19 05:03:56;;;;;;;7.68;2.85;;;;;;;;;;4965040;28;20225;-83
2022/06/19 05:06:22;;;;;;;9.85;2.55;;;;;;;;;;4947629;28;20299;-84
2022/06/19 05:08:47;;;;;;;9.13;2.70;;;;;;;;;;4995576;28;20308;-87
2022/06/19 05:11:15;;;;;;;11.10;3.22;;;;;;;;;;4967852;28;20229;-86
2022/06/19 05:13:43;;;;;;;9.90;2.67;;;;;;;;;;4984090;28;20224;-88
2022/06/19 05:16:13;;;;;;;11.73;3.30;;;;;;;;;;4967473;28;20228;-87
2022/06/19 05:18:38;;;;;;;11.20;2.83;;;;;;;;;;4977297;28;20253;-88
2022/06/19 05:21:04;;;;;;;11.07;2.97;;;;;;;;;;4962263;28;20861;-86
2022/06/19 05:23:33;;;;;;;10.50;2.88;;;;;;;;;;4979192;28;20857;-86
2022/06/19 05:26:13;;;;;;;14.18;3.20;;;;;;;;;;4977666;28;20225;-85
2022/06/19 05:28:38;;;;;;;7.03;2.60;;;;;;;;;;4933452;28;20229;-84
2022/06/19 05:31:04;;;;;;;10.75;3.00;;;;;;;;;;4988951;28;20220;-83
2022/06/19 05:33:30;;;;;;;7.93;2.88;;;;;;;;;;4988245;28;20231;-85
2022/06/19 05:35:58;;;;;;;13.32;3.42;;;;;;;;;;4982114;28;20281;-82
2022/06/19 05:38:26;;;;;;;8.25;3.22;;;;;;;;;;4960541;28;20232;-84
2022/06/19 05:40:54;;;;;;;12.38;3.05;;;;;;;;;;4979407;28;20316;-87
2022/06/19 05:43:20;;;;;;;13.68;3.38;;;;;;;;;;4971294;28;20733;-84
2022/06/19 05:46:08;;;;;;;13.43;3.25;;;;;;;;;;4985700;28;20319;-86
2022/06/19 05:48:34;;;;;;;11.85;2.70;;;;;;;;;;4982150;28;20308;-88
2022/06/19 05:51:10;;;;;;;9.02;3.00;;;;;;;;;;4966557;28;20760;-85
2022/06/19 05:53:38;;;;;;;10.45;3.35;;;;;;;;;;4977115;28;20387;-86
2022/06/19 05:56:06;;;;;;;8.18;2.55;;;;;;;;;;4967897;28;20235;-87
2022/06/19 05:58:39;;;;;;;9.80;2.70;;;;;;;;;;4985704;28;20229;-86
2022/06/19 06:01:05;;;;;;;12.20;2.90;;;;;;;;;;4985801;28;20214;-87
2022/06/19 06:03:31;;;;;;;7.97;2.67;;;;;;;;;;4974273;28;20233;-82
2022/06/19 06:06:00;;;;;;;9.15;2.75;;;;;;;;;;4986042;28;20354;-87
2022/06/19 06:08:26;;;;;;;7.88;1.95;;;;;;;;;;4964985;28;20296;-84
2022/06/19 06:10:53;;;;;;;6.18;1.95;;;;;;;;;;4974100;28;20232;-84
2022/06/19 06:13:21;;;;;;;7.00;1.90;;;;;;;;;;4966651;28;20636;-86
2022/06/19 06:15:48;;;;;;;5.63;1.88;;;;;;;;;;4952290;28;20232;-85
2022/06/19 06:18:13;;;;;;;8.13;2.13;;;;;;;;;;4973078;28;20213;-86
2022/06/19 06:20:41;;;;;;;5.18;1.90;;;;;;;;;;4983337;28;20604;-82
2022/06/19 06:23:07;;;;;;;7.03;1.88;;;;;;;;;;4976498;28;20233;-84
2022/06/19 06:25:34;;;;;;;6.63;2.00;;;;;;;;;;4979092;28;20246;-87
2022/06/19 06:28:02;;;;;;;5.95;1.83;;;;;;;;;;5009755;28;20252;-86
2022/06/19 06:30:28;;;;;;;6.32;1.98;;;;;;;;;;4992521;28;20225;-83
2022/06/19 06:32:55;;;;;;;6.53;2.08;;;;;;;;;;4976003;28;20279;-85
2022/06/19 06:35:24;;;;;;;5.68;2.40;;;;;;;;;;4989055;28;20240;-87
2022/06/19 06:37:52;;;;;;;8.27;2.75;;;;;;;;;;4971492;28;20237;-84
2022/06/19 06:40:17;;;;;;;7.75;2.80;;;;;;;;;;4992974;28;20286;-87
2022/06/19 06:42:45;;;;;;;8.18;2.72;;;;;;;;;;4973155;28;20229;-86
2022/06/19 06:45:14;;;;;;;9.10;2.10;;;;;;;;;;4975544;28;20229;-89
2022/06/19 06:47:39;;;;;;;8.63;2.30;;;;;;;;;;4983778;28;20233;-86
2022/06/19 06:50:05;;;;;;;10.15;2.65;;;;;;;;;;4987342;28;20579;-88
2022/06/19 06:52:33;;;;;;;8.52;2.60;;;;;;;;;;4964170;28;20275;-86
2022/06/19 06:55:01;;;;;;;9.20;2.88;;;;;;;;;;4971739;28;20315;-86
2022/06/19 06:57:27;;;;;;;13.05;2.47;;;;;;;;;;4982266;28;20239;-85
2022/06/19 06:59:52;;;;;;;8.13;2.75;;;;;;;;;;4978723;28;20229;-85
2022/06/19 07:02:21;;;;;;;8.95;2.80;;;;;;;;;;4967219;28;20229;-83
2022/06/19 07:04:46;;;;;;;9.23;3.03;;;;;;;;;;5001163;28;20232;-86
2022/06/19 07:07:12;;;;;;;9.57;2.90;;;;;;;;;;4980649;28;20232;-86
2022/06/19 07:09:37;;;;;;;10.20;3.20;;;;;;;;;;4966824;28;20229;-84
2022/06/19 07:12:03;;;;;;;8.32;2.67;;;;;;;;;;4951955;28;20229;-85
2022/06/19 07:14:29;;;;;;;8.40;2.75;;;;;;;;;;4984979;28;20235;-87
2022/06/19 07:16:54;;;;;;;8.65;2.50;;;;;;;;;;4984385;28;20278;-87
2022/06/19 07:19:22;;;;;;;8.48;2.72;;;;;;;;;;5016015;28;20233;-87
2022/06/19 07:21:48;;;;;;;8.40;2.47;;;;;;;;;;4963964;28;20282;-86
2022/06/19 07:24:13;;;;;;;11.68;2.55;;;;;;;;;;4963068;28;20304;-86
2022/06/19 07:26:39;;;;;;;8.02;2.90;;;;;;;;;;4968525;28;20233;-85
2022/06/19 07:29:08;;;;;;;8.98;2.53;;;;;;;;;;4952110;28;20226;-86
2022/06/19 07:31:37;;;;;;;8.25;2.42;;;;;;;;;;4980585;28;20248;-83
2022/06/19 07:34:04;;;;;;;10.35;2.63;;;;;;;;;;4968347;28;20598;-87
2022/06/19 07:36:32;;;;;;;8.70;2.72;;;;;;;;;;4979689;28;20221;-83
2022/06/19 07:38:57;;;;;;;6.43;2.53;;;;;;;;;;4957376;28;20233;-82
2022/06/19 07:41:23;;;;;;;8.52;2.50;;;;;;;;;;4981265;28;20277;-84
2022/06/19 07:43:50;;;;;;;10.15;2.80;;;;;;;;;;4980238;28;20996;-86
2022/06/19 07:46:17;;;;;;;11.27;2.63;;;;;;;;;;4978557;28;20226;-85
2022/06/19 07:51:29;;;;;;;7.15;2.53;;;;;;;;;;4971403;28;20319;-86
2022/06/19 07:53:54;;;;;;;9.07;2.60;;;;;;;;;;4976235;28;20280;-86
2022/06/19 07:56:20;;;;;;;10.75;2.80;;;;;;;;;;4949407;28;20330;-82
2022/06/19 07:58:48;;;;;;;10.80;2.70;;;;;;;;;;4966174;28;20225;-86
2022/06/19 08:01:13;;;;;;;7.63;2.53;;;;;;;;;;4951914;28;20233;-85
2022/06/19 08:03:39;;;;;;;8.38;2.88;;;;;;;;;;4990344;28;20227;-82
2022/06/19 08:06:04;;;;;;;9.70;2.90;;;;;;;;;;5006205;28;20292;-86
2022/06/19 08:08:32;;;;;;;6.55;2.55;;;;;;;;;;4979691;28;20240;-83
2022/06/19 08:10:58;;;;;;;8.52;2.70;;;;;;;;;;4983634;28;20232;-82
2022/06/19 08:13:29;;;;;;;7.95;2.58;;;;;;;;;;4986224;28;20224;-85
2022/06/19 08:15:56;;;;;;;10.07;2.92;;;;;;;;;;4982164;28;20232;-85
2022/06/19 08:18:23;;;;;;;7.35;2.50;;;;;;;;;;4973864;28;20231;-84
2022/06/19 08:20:54;;;;;;;8.30;2.40;;;;;;;;;;4964323;28;20249;-86
2022/06/19 08:23:19;;;;;;;6.18;2.33;;;;;;;;;;4967213;28;20223;-82
2022/06/19 08:25:45;;;;;;;10.43;2.97;;;;;;;;;;4984122;28;20225;-85
2022/06/19 08:28:23;;;;;;;11.52;2.60;;;;;;;;;;4971023;28;20253;-84
2022/06/19 08:30:48;;;;;;;9.05;2.63;;;;;;;;;;4968497;28;20212;-86
2022/06/19 08:33:19;;;;;;;6.50;2.20;;;;;;;;;;4994247;28;20233;-83
2022/06/19 08:35:50;;;;;;;7.47;2.30;;;;;;;;;;4980738;28;20220;-85
2022/06/19 08:38:20;;;;;;;8.00;2.78;;;;;;;;;;5014062;28;20565;-86
2022/06/19 08:40:51;;;;;;;5.30;2.35;;;;;;;;;;4973589;28;20222;-87
2022/06/19 08:43:31;;;;;;;5.88;2.35;;;;;;;;;;5014733;28;20272;-87
2022/06/19 08:46:19;;;;;;;6.78;2.45;;;;;;;;;;5021457;28;20239;-85
2022/06/19 08:53:09;;;;;;;5.85;2.55;;;;;;;;;;5029788;23;20678;-71
2022/06/19 08:56:02;;;;;;;5.55;2.60;;;;;;;;;;5025318;28;20230;-73
2022/06/19 08:58:54;;;;;;;5.80;2.30;;;;;;;;;;4970798;28;20335;-73
2022/06/19 09:01:23;;;;;;;7.05;2.28;;;;;;;;;;4981064;28;20737;-72
2022/06/19 09:07:08;;;;;;;7.50;2.40;;;;;;;;;;4996759;28;20301;-71
2022/06/19 09:09:49;;;;;;;8.93;3.00;;;;;;;;;;4983750;28;20233;-72
2022/06/19 09:12:37;;;;;;;7.55;2.83;;;;;;;;;;5000921;28;20702;-71
2022/06/19 09:15:42;;;;;;;8.70;2.95;;;;;;;;;;4977231;28;20239;-71
2022/06/19 09:18:25;;;;;;;8.55;2.90;;;;;;;;;;4995121;28;21061;-72
2022/06/19 09:21:13;;;;;;;7.28;2.67;;;;;;;;;;4988107;28;20235;-73
2022/06/19 09:23:46;;;;;;;8.77;2.78;;;;;;;;;;4997730;28;20218;-74
2022/06/19 09:26:21;;;;;;;7.95;2.45;;;;;;;;;;4999687;28;20230;-71
2022/06/19 09:28:54;;;;;;;9.20;2.80;;;;;;;;;;4995217;28;20272;-72
2022/06/19 09:31:38;;;;;;;9.68;3.08;;;;;;;;;;4996694;28;20767;-71
2022/06/19 09:34:12;;;;;;;6.43;2.60;;;;;;;;;;4944872;28;20229;-70
2022/06/19 09:37:22;;;;;;;7.68;2.88;;;;;;;;;;4984415;28;20259;-72
2022/06/19 09:40:03;;;;;;;6.70;2.45;;;;;;;;;;4941971;28;20295;-72
2022/06/19 09:42:50;;;;;;;7.00;2.42;;;;;;;;;;5005722;28;20310;-70
2022/06/19 09:45:33;;;;;;;8.35;3.00;;;;;;;;;;4977405;28;20256;-71
2022/06/19 09:48:19;;;;;;;8.10;2.72;;;;;;;;;;4989359;28;20233;-70
2022/06/19 09:51:06;;;;;;;6.22;2.47;;;;;;;;;;4987377;28;20699;-70
2022/06/19 09:53:53;;;;;;;5.53;2.47;;;;;;;;;;4998199;28;20233;-71
2022/06/19 09:56:39;;;;;;;6.15;2.20;;;;;;;;;;4985237;28;20217;-72
2022/06/19 09:59:07;;;;;;;6.22;2.35;;;;;;;;;;5004855;28;20217;-71
2022/06/19 10:01:33;;;;;;;6.70;2.35;;;;;;;;;;4999240;28;20710;-71
2022/06/19 10:04:04;;;;;;;6.50;2.45;;;;;;;;;;4991498;28;20308;-71
2022/06/19 10:06:39;;;;;;;5.15;2.20;;;;;;;;;;4958971;28;20365;-72
2022/06/19 10:09:19;;;;;;;8.00;2.90;;;;;;;;;;4986432;28;20243;-71
2022/06/19 10:11:45;;;;;;;6.60;2.40;;;;;;;;;;5001351;28;20217;-71
2022/06/19 10:14:31;;;;;;;7.50;2.30;;;;;;;;;;5000382;28;20220;-72
2022/06/19 10:17:02;;;;;;;5.55;2.40;;;;;;;;;;4976044;28;20741;-72
2022/06/19 10:20:09;;;;;;;9.00;2.50;;;;;;;;;;4975387;28;20244;-73
2022/06/19 10:22:43;;;;;;;5.85;2.30;;;;;;;;;;4979151;28;20229;-71
2022/06/19 10:25:27;;;;;;;5.90;2.40;;;;;;;;;;4994563;28;20745;-72
2022/06/19 10:28:15;;;;;;;7.32;2.40;;;;;;;;;;4994767;28;20222;-72
2022/06/19 10:31:20;;;;;;;6.40;2.42;;;;;;;;;;4983934;28;20257;-72
2022/06/19 10:34:04;;;;;;;6.70;2.50;;;;;;;;;;4997484;28;20267;-70
2022/06/19 10:36:53;;;;;;;6.13;2.20;;;;;;;;;;4999480;28;20237;-71
2022/06/19 10:39:25;;;;;;;4.65;2.20;;;;;;;;;;4992376;28;20754;-72
2022/06/19 10:42:07;;;;;;;6.35;2.50;;;;;;;;;;5002413;28;20754;-71
2022/06/19 10:44:51;;;;;;;8.48;2.47;;;;;;;;;;4972352;28;20721;-71
2022/06/19 10:47:37;;;;;;;5.22;2.05;;;;;;;;;;5002969;28;20863;-73
2022/06/19 10:50:15;;;;;;;6.32;2.55;;;;;;;;;;4987402;28;20220;-71
2022/06/19 10:52:43;;;;;;;8.07;2.17;;;;;;;;;;5001590;28;20287;-70
2022/06/19 10:55:09;;;;;;;4.82;2.50;;;;;;;;;;4991584;28;20311;-71
2022/06/19 10:58:02;;;;;;;6.40;2.20;;;;;;;;;;4997937;28;20233;-71
2022/06/19 11:00:28;;;;;;;8.90;2.10;;;;;;;;;;5000933;28;20233;-70
2022/06/19 11:05:52;;;;;;;5.07;2.03;;;;;;;;;;4999420;28;20233;-72
2022/06/19 11:08:21;;;;;;;4.35;2.03;;;;;;;;;;4973102;28;20741;-71
2022/06/19 11:10:56;;;;;;;5.55;2.08;;;;;;;;;;4983807;28;20218;-72
2022/06/19 11:13:24;;;;;;;4.95;1.80;;;;;;;;;;4988992;28;20228;-71
2022/06/19 11:16:04;;;;;;;4.47;1.75;;;;;;;;;;4978008;28;20216;-72
2022/06/19 11:18:31;;;;;;;4.95;1.80;;;;;;;;;;4983455;28;20674;-72
2022/06/19 11:21:13;;;;;;;4.65;1.77;;;;;;;;;;4996104;28;20225;-74
2022/06/19 11:23:40;;;;;;;4.78;1.80;;;;;;;;;;4955049;28;21081;-72
2022/06/19 11:26:12;;;;;;;4.32;1.85;;;;;;;;;;4992721;28;20316;-72
2022/06/19 11:28:48;;;;;;;6.70;1.80;;;;;;;;;;4984403;28;20731;-72
2022/06/19 11:31:23;;;;;;;4.43;1.65;;;;;;;;;;4989393;28;21184;-73
2022/06/19 11:33:52;;;;;;;5.43;1.80;;;;;;;;;;4987748;28;20661;-73
2022/06/19 11:36:24;;;;;;;5.68;2.00;;;;;;;;;;4970619;28;20229;-72
2022/06/19 11:38:54;;;;;;;4.05;1.75;;;;;;;;;;4998399;28;20232;-72
2022/06/19 11:41:34;;;;;;;5.20;1.48;;;;;;;;;;4988483;28;20617;-72
2022/06/19 11:44:12;;;;;;;6.45;1.60;;;;;;;;;;4998979;28;20213;-75
2022/06/19 11:46:53;;;;;;;4.30;1.98;;;;;;;;;;5001346;28;20225;-74
2022/06/19 11:49:28;;;;;;;8.65;2.83;;;;;;;;;;4964870;28;21015;-74
2022/06/19 11:52:00;;;;;;;4.38;2.25;;;;;;;;;;4998965;28;20235;-77
2022/06/19 11:54:30;;;;;;;3.72;1.67;;;;;;;;;;5002746;28;20236;-74
2022/06/19 11:56:56;;;;;;;5.53;1.70;;;;;;;;;;4991743;28;20228;-78
2022/06/19 11:59:35;;;;;;;3.35;1.70;;;;;;;;;;4989463;28;20216;-76
2022/06/19 12:02:01;;;;;;;5.32;1.70;;;;;;;;;;4982212;28;20290;-74
2022/06/19 12:04:40;;;;;;;5.18;1.73;;;;;;;;;;4968927;28;20603;-74
2022/06/19 12:07:11;;;;;;;3.97;1.60;;;;;;;;;;4996609;28;20230;-73
2022/06/19 12:09:43;;;;;;;4.75;1.70;;;;;;;;;;4997269;28;20226;-76
2022/06/19 12:12:12;;;;;;;6.20;2.03;;;;;;;;;;4985822;28;20245;-76
2022/06/19 12:15:17;;;;;;;4.07;2.08;;;;;;;;;;5006206;28;20236;-73
2022/06/19 12:17:47;;;;;;;3.45;1.60;;;;;;;;;;4965381;28;20726;-75
2022/06/19 12:20:13;;;;;;;5.90;1.92;;;;;;;;;;4996441;28;20287;-74
2022/06/19 12:23:00;;;;;;;5.18;2.00;;;;;;;;;;4994756;28;20225;-74
2022/06/19 12:25:28;;;;;;;8.77;2.33;;;;;;;;;;4980541;28;20227;-74
2022/06/19 12:28:20;;;;;;;6.68;2.20;;;;;;;;;;4997696;28;20224;-72
2022/06/19 12:31:01;;;;;;;6.57;2.40;;;;;;;;;;4999723;28;20224;-73
2022/06/19 12:33:36;;;;;;;7.20;2.17;;;;;;;;;;4998346;28;20293;-72
2022/06/19 12:36:02;;;;;;;5.07;2.13;;;;;;;;;;4977879;28;20315;-74
2022/06/19 12:38:32;;;;;;;6.80;2.47;;;;;;;;;;4985278;28;20292;-74
2022/06/19 12:41:18;;;;;;;5.75;2.25;;;;;;;;;;4986689;28;20267;-73
2022/06/19 12:44:16;;;;;;;4.72;2.17;;;;;;;;;;5001610;28;20274;-72
2022/06/19 12:46:48;;;;;;;5.00;2.42;;;;;;;;;;5000403;28;20233;-74
2022/06/19 12:49:39;;;;;;;6.90;2.33;;;;;;;;;;4997075;28;20232;-72
2022/06/19 12:52:25;;;;;;;4.45;2.10;;;;;;;;;;4998177;28;20229;-73
2022/06/19 12:55:32;;;;;;;4.97;1.73;;;;;;;;;;4981798;28;20279;-74
2022/06/19 12:58:03;;;;;;;5.90;2.30;;;;;;;;;;4927857;28;20265;-73
2022/06/19 13:00:47;;;;;;;10.00;2.95;;;;;;;;;;4975591;28;20761;-73
2022/06/19 13:03:31;;;;;;;13.20;3.22;;;;;;;;;;4996440;28;20212;-72
2022/06/19 13:06:06;;;;;;;7.65;2.15;;;;;;;;;;4998548;28;20966;-75
2022/06/19 13:08:52;;;;;;;4.47;1.90;;;;;;;;;;4978323;28;20232;-73
2022/06/19 13:11:26;;;;;;;6.85;2.38;;;;;;;;;;4997132;28;20625;-73
2022/06/19 13:14:11;;;;;;;4.93;2.30;;;;;;;;;;5001805;28;20239;-72
2022/06/19 13:16:58;;;;;;;6.25;2.17;;;;;;;;;;4950803;28;20612;-73
2022/06/19 13:19:45;;;;;;;4.25;2.03;;;;;;;;;;4993864;28;20240;-73
2022/06/19 13:22:20;;;;;;;6.82;2.42;;;;;;;;;;4997228;28;20739;-73
2022/06/19 13:25:10;;;;;;;7.53;2.50;;;;;;;;;;4998601;28;20249;-72
2022/06/19 13:27:47;;;;;;;6.00;2.22;;;;;;;;;;4980805;28;20288;-73
2022/06/19 13:30:16;;;;;;;5.43;2.65;;;;;;;;;;4996869;28;20628;-75
2022/06/19 13:33:22;;;;;;;6.00;2.55;;;;;;;;;;4996555;28;20303;-73
2022/06/19 13:35:49;;;;;;;5.82;2.38;;;;;;;;;;4996503;28;20268;-73
2022/06/19 13:38:36;;;;;;;6.07;2.53;;;;;;;;;;4993787;28;20235;-73
2022/06/19 13:41:30;;;;;;;8.68;3.50;;;;;;;;;;5001195;28;20221;-74
2022/06/19 13:44:04;;;;;;;5.97;2.60;;;;;;;;;;4968953;28;20236;-72
2022/06/19 13:47:03;;;;;;;6.03;2.55;;;;;;;;;;4998089;28;20268;-73
2022/06/19 13:49:47;;;;;;;6.45;2.72;;;;;;;;;;4997634;28;20225;-74
2022/06/19 13:52:25;;;;;;;4.75;2.47;;;;;;;;;;4996458;28;20240;-75
2022/06/19 13:54:57;;;;;;;7.78;2.65;;;;;;;;;;4981259;28;20233;-74
2022/06/19 13:57:34;;;;;;;5.45;2.65;;;;;;;;;;4993341;28;20312;-73
2022/06/19 14:00:03;;;;;;;6.35;2.53;;;;;;;;;;5007221;28;20298;-73
2022/06/19 14:02:30;;;;;;;5.88;2.00;;;;;;;;;;5002657;28;20225;-73
2022/06/19 14:05:09;;;;;;;2.88;1.60;;;;;;;;;;5002732;28;20274;-74
2022/06/19 14:07:59;;;;;;;6.38;1.92;;;;;;;;;;4970575;28;20248;-74
2022/06/19 14:10:45;;;;;;;4.90;1.90;;;;;;;;;;5004191;28;20217;-73
2022/06/19 14:13:30;;;;;;;5.75;1.67;;;;;;;;;;4989382;28;20239;-74
2022/06/19 14:16:27;;;;;;;4.80;1.75;;;;;;;;;;4994050;28;20237;-73
2022/06/19 14:18:56;;;;;;;4.22;1.55;;;;;;;;;;4999428;28;20722;-74
2022/06/19 14:21:46;;;;;;;5.50;1.55;;;;;;;;;;4979439;28;20243;-73
2022/06/19 14:24:24;;;;;;;5.30;1.90;;;;;;;;;;4983707;28;20261;-74
2022/06/19 14:27:27;;;;;;;5.55;1.67;;;;;;;;;;5001203;28;20864;-73
2022/06/19 14:29:57;;;;;;;6.15;2.00;;;;;;;;;;5004326;28;20228;-74
2022/06/19 14:32:47;;;;;;;5.78;2.00;;;;;;;;;;4997667;28;20233;-72
2022/06/19 14:35:18;;;;;;;6.22;2.20;;;;;;;;;;4998981;28;20218;-74
2022/06/19 14:38:08;;;;;;;5.07;1.85;;;;;;;;;;4981788;28;20232;-78
2022/06/19 14:40:41;;;;;;;5.68;1.98;;;;;;;;;;4999094;28;20229;-74
2022/06/19 14:43:09;;;;;;;3.33;1.77;;;;;;;;;;5000051;28;20233;-74
2022/06/19 14:45:44;;;;;;;5.18;1.85;;;;;;;;;;5004233;28;20302;-72
2022/06/19 14:48:27;;;;;;;4.57;2.22;;;;;;;;;;5005612;28;20653;-76
2022/06/19 14:51:23;;;;;;;6.93;2.05;;;;;;;;;;4988401;28;20275;-73
2022/06/19 14:54:16;;;;;;;4.18;1.98;;;;;;;;;;5004381;28;20647;-73
2022/06/19 14:57:01;;;;;;;4.22;1.90;;;;;;;;;;5004354;28;20294;-73
2022/06/19 14:59:51;;;;;;;4.40;1.58;;;;;;;;;;4999346;28;20229;-72
2022/06/19 15:02:24;;;;;;;4.93;1.65;;;;;;;;;;4981411;28;20358;-72
2022/06/19 15:05:19;;;;;;;4.65;2.20;;;;;;;;;;4989062;28;20229;-71
2022/06/19 15:07:44;;;;;;;4.70;1.63;;;;;;;;;;4975552;28;20234;-75
2022/06/19 15:10:10;;;;;;;3.28;1.55;;;;;;;;;;4990537;28;20216;-75
2022/06/19 15:12:35;;;;;;;3.45;1.65;;;;;;;;;;5003375;28;20312;-73
2022/06/19 15:15:16;;;;;;;3.38;1.60;;;;;;;;;;5003027;28;20263;-73
2022/06/19 15:17:44;;;;;;;5.95;1.67;;;;;;;;;;4988983;28;20228;-73
2022/06/19 15:21:02;;;;;;;4.13;1.88;;;;;;;;;;4990925;28;20241;-72
2022/06/19 15:23:31;;;;;;;3.95;1.67;;;;;;;;;;4965242;28;20430;-74
2022/06/19 15:26:15;;;;;;;3.83;1.83;;;;;;;;;;4990138;28;21125;-73
2022/06/19 15:28:44;;;;;;;5.13;1.50;;;;;;;;;;5001102;28;20323;-75
2022/06/19 15:31:18;;;;;;;3.08;1.63;;;;;;;;;;5001756;28;20256;-73
2022/06/19 15:33:50;;;;;;;5.55;1.98;;;;;;;;;;4981433;28;20240;-72